createdAt,value
2022-10-09T00:00:40.374Z,9.57
2022-10-09T00:03:07.304Z,7.50
2022-10-09T00:05:33.919Z,7.15
2022-10-09T00:08:00.634Z,6.53
2022-10-09T00:10:27.389Z,6.15
2022-10-09T00:12:53.976Z,5.07
2022-10-09T00:15:20.704Z,5.15
2022-10-09T00:17:47.271Z,4.63
2022-10-09T00:20:16.147Z,5.13
2022-10-09T00:22:43.643Z,4.50
2022-10-09T00:25:10.323Z,4.38
2022-10-09T00:27:36.903Z,3.33
2022-10-09T00:30:03.901Z,3.30
2022-10-09T00:32:30.470Z,3.00
2022-10-09T00:34:57.042Z,3.33
2022-10-09T00:37:23.659Z,3.17
2022-10-09T00:39:50.409Z,3.00
2022-10-09T00:42:16.984Z,3.30
2022-10-09T00:45:00.457Z,3.10
2022-10-09T00:47:36.560Z,3.00
2022-10-09T00:50:10.366Z,3.05
2022-10-09T00:52:36.933Z,3.03
2022-10-09T00:55:03.773Z,3.47
2022-10-09T00:57:31.814Z,3.45
2022-10-09T00:59:59.284Z,2.92
2022-10-09T01:02:25.923Z,3.22
2022-10-09T01:04:52.929Z,3.20
2022-10-09T01:07:56.573Z,3.83
2022-10-09T01:10:52.389Z,3.75
2022-10-09T01:16:08.343Z,3.43
2022-10-09T01:18:40.791Z,3.67
2022-10-09T01:21:35.978Z,3.72
2022-10-09T01:24:05.569Z,3.28
2022-10-09T01:26:58.631Z,3.35
2022-10-09T01:29:27.128Z,3.03
2022-10-09T01:31:53.691Z,5.65
2022-10-09T01:34:20.480Z,3.58
2022-10-09T01:36:47.089Z,4.43
2022-10-09T01:39:18.615Z,3.08
2022-10-09T01:41:46.725Z,3.20
2022-10-09T01:44:20.903Z,3.15
2022-10-09T01:46:47.700Z,3.23
2022-10-09T01:49:52.969Z,2.67
2022-10-09T01:52:44.722Z,2.80
2022-10-09T01:55:14.380Z,2.80
2022-10-09T01:57:45.906Z,3.13
2022-10-09T02:00:12.704Z,2.53
2022-10-09T02:02:39.906Z,2.50
2022-10-09T02:05:07.029Z,3.20
2022-10-09T02:07:33.783Z,3.45
2022-10-09T02:10:01.051Z,3.28
2022-10-09T02:12:28.368Z,3.55
2022-10-09T02:14:54.947Z,3.28
2022-10-09T02:17:23.400Z,3.22
2022-10-09T02:19:58.676Z,3.65
2022-10-09T02:22:28.852Z,2.60
2022-10-09T02:24:55.512Z,2.58
2022-10-09T02:27:22.499Z,2.50
2022-10-09T02:29:49.360Z,3.58
2022-10-09T02:32:16.045Z,3.13
2022-10-09T02:34:42.738Z,2.47
2022-10-09T02:37:09.321Z,2.75
2022-10-09T02:39:35.945Z,2.75
2022-10-09T02:42:03.092Z,2.58
2022-10-09T02:44:29.705Z,2.60
2022-10-09T02:46:56.350Z,2.60
2022-10-09T02:49:22.982Z,2.38
2022-10-09T02:51:49.591Z,2.10
2022-10-09T02:54:16.206Z,2.30
2022-10-09T02:56:42.800Z,1.92
2022-10-09T02:59:09.449Z,2.67
2022-10-09T03:01:36.292Z,2.50
2022-10-09T03:04:03.096Z,3.42
2022-10-09T03:06:29.721Z,3.20
2022-10-09T03:08:56.484Z,2.38
2022-10-09T03:11:24.075Z,2.30
2022-10-09T03:13:50.983Z,2.20
2022-10-09T03:16:22.217Z,2.13
2022-10-09T03:18:49.417Z,1.75
2022-10-09T03:21:18.166Z,2.30
2022-10-09T03:23:44.910Z,1.98
2022-10-09T03:26:13.881Z,1.70
2022-10-09T03:28:41.681Z,1.95
2022-10-09T03:31:08.586Z,2.35
2022-10-09T03:33:35.731Z,1.92
2022-10-09T03:36:02.423Z,1.88
2022-10-09T03:38:28.977Z,1.83
2022-10-09T03:40:55.564Z,1.50
2022-10-09T03:43:22.173Z,1.92
2022-10-09T03:45:49.040Z,1.65
2022-10-09T03:48:15.684Z,1.48
2022-10-09T03:50:42.369Z,1.95
2022-10-09T03:53:10.141Z,2.30
2022-10-09T03:55:36.865Z,2.17
2022-10-09T03:58:03.705Z,1.90
2022-10-09T04:00:30.441Z,1.77
2022-10-09T04:02:57.216Z,2.00
2022-10-09T04:05:23.830Z,1.73
2022-10-09T04:07:50.523Z,1.70
2022-10-09T04:10:17.183Z,1.88
2022-10-09T04:12:43.744Z,2.50
2022-10-09T04:15:10.689Z,1.83
2022-10-09T04:17:37.441Z,1.80
2022-10-09T04:20:04.339Z,1.70
2022-10-09T04:22:30.975Z,1.80
2022-10-09T04:24:57.579Z,1.83
2022-10-09T04:27:24.375Z,2.28
2022-10-09T04:29:50.980Z,2.00
2022-10-09T04:32:17.721Z,2.17
2022-10-09T04:34:44.407Z,2.38
2022-10-09T04:37:11.007Z,2.22
2022-10-09T04:39:37.587Z,2.15
2022-10-09T04:42:04.376Z,1.98
2022-10-09T04:44:30.940Z,2.10
2022-10-09T04:46:57.516Z,2.33
2022-10-09T04:49:24.056Z,2.08
2022-10-09T04:51:50.642Z,2.35
2022-10-09T04:54:17.239Z,2.10
2022-10-09T04:56:43.804Z,2.80
2022-10-09T04:59:10.368Z,2.53
2022-10-09T05:01:38.484Z,2.90
2022-10-09T05:04:05.422Z,2.58
2022-10-09T05:06:32.044Z,2.50
2022-10-09T05:08:58.672Z,2.25
2022-10-09T05:11:25.579Z,2.70
2022-10-09T05:13:54.921Z,2.33
2022-10-09T05:16:23.558Z,2.75
2022-10-09T05:18:51.689Z,2.70
2022-10-09T05:21:18.442Z,2.80
2022-10-09T05:23:45.269Z,2.65
2022-10-09T05:26:13.802Z,2.70
2022-10-09T05:28:40.715Z,2.58
2022-10-09T05:31:07.582Z,2.83
2022-10-09T05:33:34.588Z,3.28
2022-10-09T05:36:02.579Z,2.40
2022-10-09T05:38:29.252Z,2.53
2022-10-09T05:40:55.719Z,2.58
2022-10-09T05:43:48.800Z,2.40
2022-10-09T05:46:17.546Z,2.70
2022-10-09T05:48:45.437Z,2.80
2022-10-09T05:51:17.552Z,3.33
2022-10-09T05:53:44.701Z,2.88
2022-10-09T05:56:18.264Z,2.83
2022-10-09T05:58:49.232Z,2.30
2022-10-09T06:01:15.814Z,2.70
2022-10-09T06:03:42.653Z,2.30
2022-10-09T06:06:09.431Z,2.75
2022-10-09T06:08:36.780Z,3.40
2022-10-09T06:11:31.665Z,3.15
2022-10-09T06:13:59.084Z,2.97
2022-10-09T06:16:27.089Z,2.60
2022-10-09T06:18:54.268Z,3.20
2022-10-09T06:21:23.620Z,2.50
2022-10-09T06:23:54.209Z,2.65
2022-10-09T06:26:21.511Z,2.28
2022-10-09T06:28:48.384Z,2.20
2022-10-09T06:31:17.064Z,2.10
2022-10-09T06:33:44.307Z,2.20
2022-10-09T06:36:15.056Z,2.50
2022-10-09T06:38:41.771Z,2.50
2022-10-09T06:41:11.004Z,2.63
2022-10-09T06:43:37.908Z,2.55
2022-10-09T06:46:05.992Z,2.60
2022-10-09T06:48:33.220Z,2.33
2022-10-09T06:51:03.819Z,2.80
2022-10-09T06:53:30.512Z,2.60
2022-10-09T06:55:57.589Z,2.80
2022-10-09T06:58:35.039Z,2.83
2022-10-09T07:01:15.708Z,3.30
2022-10-09T07:03:43.587Z,3.05
2022-10-09T07:06:15.097Z,2.88
2022-10-09T07:08:42.633Z,3.10
2022-10-09T07:11:14.367Z,3.08
2022-10-09T07:13:42.174Z,3.03
2022-10-09T07:16:09.366Z,3.47
2022-10-09T07:18:36.135Z,3.25
2022-10-09T07:21:03.608Z,2.65
2022-10-09T07:23:30.826Z,3.17
2022-10-09T07:25:57.776Z,3.15
2022-10-09T07:28:25.525Z,2.88
2022-10-09T07:30:52.731Z,2.50
2022-10-09T07:33:19.620Z,2.67
2022-10-09T07:35:59.362Z,3.20
2022-10-09T07:38:25.979Z,3.05
2022-10-09T07:40:52.856Z,2.38
2022-10-09T07:43:19.695Z,2.58
2022-10-09T07:45:46.478Z,2.17
2022-10-09T07:48:13.487Z,1.98
2022-10-09T07:50:40.171Z,1.85
2022-10-09T07:53:08.865Z,1.40
2022-10-09T07:55:36.026Z,1.85
2022-10-09T07:58:02.924Z,1.55
2022-10-09T08:00:29.566Z,1.90
2022-10-09T08:03:20.184Z,1.60
2022-10-09T08:05:54.639Z,1.50
2022-10-09T08:08:21.292Z,2.08
2022-10-09T08:10:48.625Z,2.20
2022-10-09T08:13:15.635Z,2.08
2022-10-09T08:15:43.130Z,2.00
2022-10-09T08:18:10.375Z,2.00
2022-10-09T08:20:37.326Z,1.70
2022-10-09T08:23:04.020Z,1.77
2022-10-09T08:25:33.702Z,1.80
2022-10-09T08:28:00.503Z,1.95
2022-10-09T08:30:27.818Z,1.80
2022-10-09T08:32:54.418Z,1.70
2022-10-09T08:35:21.451Z,1.60
2022-10-09T08:37:48.218Z,1.95
2022-10-09T08:40:21.080Z,2.25
2022-10-09T08:42:58.210Z,2.00
2022-10-09T08:45:24.903Z,1.70
2022-10-09T08:48:00.142Z,1.92
2022-10-09T08:50:29.604Z,1.55
2022-10-09T08:53:23.925Z,1.90
2022-10-09T08:55:53.761Z,1.70
2022-10-09T08:58:21.205Z,1.70
2022-10-09T09:00:54.111Z,2.10
2022-10-09T09:03:32.896Z,1.92
2022-10-09T09:06:37.613Z,1.92
2022-10-09T09:15:58.330Z,2.33
2022-10-09T09:18:37.569Z,2.03
2022-10-09T09:21:16.573Z,1.40
2022-10-09T09:23:46.282Z,2.03
2022-10-09T09:26:17.888Z,1.92
2022-10-09T09:28:44.732Z,2.10
2022-10-09T09:31:26.644Z,1.85
2022-10-09T09:33:58.302Z,2.25
2022-10-09T09:36:27.101Z,1.73
2022-10-09T09:39:36.239Z,1.65
2022-10-09T09:41:41.889Z,1.90
2022-10-09T09:44:10.288Z,1.80
2022-10-09T09:46:37.037Z,2.00
2022-10-09T09:49:08.524Z,1.88
2022-10-09T09:51:36.215Z,1.75
2022-10-09T09:54:06.022Z,1.80
2022-10-09T09:56:59.722Z,1.58
2022-10-09T09:59:30.784Z,1.80
2022-10-09T10:02:09.064Z,1.80
2022-10-09T10:04:38.800Z,2.13
2022-10-09T10:07:09.183Z,1.73
2022-10-09T10:09:36.080Z,1.83
2022-10-09T10:12:04.004Z,1.50
2022-10-09T10:14:31.082Z,1.90
2022-10-09T10:16:59.218Z,1.63
2022-10-09T10:19:27.284Z,1.83
2022-10-09T10:21:58.832Z,1.60
2022-10-09T10:24:31.502Z,1.70
2022-10-09T10:27:25.121Z,2.10
2022-10-09T10:29:54.774Z,1.88
2022-10-09T10:32:56.074Z,1.73
2022-10-09T10:35:31.079Z,1.63
2022-10-09T10:40:36.633Z,1.77
2022-10-09T10:43:09.452Z,1.40
2022-10-09T10:45:56.359Z,1.63
2022-10-09T10:48:32.040Z,1.45
2022-10-09T10:51:29.256Z,1.30
2022-10-09T10:54:14.150Z,1.55
2022-10-09T10:56:49.714Z,1.80
2022-10-09T10:59:16.710Z,2.00
2022-10-09T11:01:49.125Z,1.73
2022-10-09T11:04:54.163Z,1.75
2022-10-09T11:07:52.959Z,2.22
2022-10-09T11:10:58.717Z,1.92
2022-10-09T11:13:44.856Z,2.13
2022-10-09T11:16:26.812Z,2.10
2022-10-09T11:19:00.166Z,2.15
2022-10-09T11:21:32.716Z,1.83
2022-10-09T11:24:21.009Z,2.58
2022-10-09T11:27:03.026Z,2.05
2022-10-09T11:29:34.659Z,2.70
2022-10-09T11:32:24.782Z,2.03
2022-10-09T11:38:37.596Z,2.20
2022-10-09T11:41:07.425Z,2.30
2022-10-09T11:43:48.310Z,3.20
2022-10-09T11:46:33.593Z,2.88
2022-10-09T11:49:23.836Z,2.60
2022-10-09T11:52:09.055Z,3.08
2022-10-09T11:54:35.732Z,2.78
2022-10-09T11:57:06.202Z,3.10
2022-10-09T11:59:37.984Z,2.97
2022-10-09T12:02:22.412Z,2.78
2022-10-09T12:04:56.272Z,2.60
2022-10-09T12:07:41.188Z,2.70
2022-10-09T12:10:09.989Z,2.67
2022-10-09T12:12:38.876Z,2.20
2022-10-09T12:15:52.865Z,2.30
2022-10-09T12:18:24.465Z,2.53
2022-10-09T12:20:51.111Z,2.42
2022-10-09T12:23:28.175Z,2.90
2022-10-09T12:25:55.819Z,2.50
2022-10-09T12:28:31.564Z,2.80
2022-10-09T12:30:59.930Z,2.63
2022-10-09T12:33:41.871Z,2.78
2022-10-09T12:36:15.312Z,2.55
2022-10-09T12:38:42.489Z,2.70
2022-10-09T12:41:21.986Z,2.90
2022-10-09T12:43:49.978Z,2.53
2022-10-09T12:46:31.203Z,2.80
2022-10-09T12:48:58.313Z,2.58
2022-10-09T12:51:26.973Z,2.55
2022-10-09T12:53:53.876Z,2.85
2022-10-09T12:56:33.611Z,2.85
2022-10-09T12:59:00.758Z,2.67
2022-10-09T13:01:27.528Z,3.20
2022-10-09T13:03:58.140Z,3.05
2022-10-09T13:06:38.249Z,2.90
2022-10-09T13:09:06.621Z,2.90
2022-10-09T13:11:40.711Z,3.15
2022-10-09T13:14:08.075Z,2.70
2022-10-09T13:16:42.391Z,2.70
2022-10-09T13:19:26.681Z,2.70
2022-10-09T13:22:20.463Z,2.90
2022-10-09T13:24:47.730Z,2.70
2022-10-09T13:27:14.782Z,2.80
2022-10-09T13:29:42.944Z,2.88
2022-10-09T13:32:14.946Z,2.67
2022-10-09T13:34:41.634Z,2.85
2022-10-09T13:37:20.295Z,2.67
2022-10-09T13:39:47.386Z,2.78
2022-10-09T13:42:14.704Z,2.40
2022-10-09T13:44:41.428Z,2.78
2022-10-09T13:47:08.124Z,2.70
2022-10-09T13:49:34.787Z,2.50
2022-10-09T13:52:01.537Z,2.58
2022-10-09T13:54:28.283Z,2.05
2022-10-09T14:00:41.284Z,1.70
2022-10-09T14:03:08.099Z,1.88
2022-10-09T14:05:34.824Z,1.92
2022-10-09T14:08:01.522Z,2.47
2022-10-09T14:10:28.522Z,2.28
2022-10-09T14:12:55.192Z,2.60
2022-10-09T14:15:21.869Z,2.03
2022-10-09T14:17:48.904Z,2.60
2022-10-09T14:20:15.652Z,2.67
2022-10-09T14:22:42.301Z,2.50
2022-10-09T14:25:09.365Z,2.60
2022-10-09T14:27:38.270Z,2.72
2022-10-09T14:30:07.871Z,2.70
2022-10-09T14:32:34.580Z,2.58
2022-10-09T14:35:01.323Z,2.30
2022-10-09T14:37:40.946Z,2.30
2022-10-09T14:40:09.493Z,2.25
2022-10-09T14:42:37.151Z,2.05
2022-10-09T14:45:04.389Z,2.30
2022-10-09T14:47:31.084Z,2.45
2022-10-09T14:49:57.767Z,2.40
2022-10-09T14:52:24.398Z,2.40
2022-10-09T14:54:51.092Z,2.33
2022-10-09T14:57:17.747Z,1.92
2022-10-09T14:59:44.418Z,2.00
2022-10-09T15:02:14.369Z,2.20
2022-10-09T15:04:41.050Z,1.90
2022-10-09T15:07:07.688Z,2.08
2022-10-09T15:09:34.630Z,2.45
2022-10-09T15:12:01.280Z,2.47
2022-10-09T15:14:27.963Z,1.70
2022-10-09T15:16:54.656Z,2.17
2022-10-09T15:19:21.339Z,1.98
2022-10-09T15:21:47.975Z,1.95
2022-10-09T15:24:14.651Z,1.85
2022-10-09T15:26:42.089Z,1.80
2022-10-09T15:29:08.859Z,2.38
2022-10-09T15:31:39.899Z,1.98
2022-10-09T15:34:07.595Z,2.00
2022-10-09T15:36:36.123Z,2.10
2022-10-09T15:39:06.023Z,2.20
2022-10-09T15:41:34.196Z,2.28
2022-10-09T15:44:13.639Z,2.35
2022-10-09T15:46:40.448Z,2.40
2022-10-09T15:49:07.897Z,2.10
2022-10-09T15:51:34.967Z,2.78
2022-10-09T15:54:01.874Z,2.85
2022-10-09T15:56:28.541Z,2.22
2022-10-09T15:58:55.392Z,2.40
2022-10-09T16:01:22.267Z,2.78
2022-10-09T16:03:49.045Z,2.08
2022-10-09T16:06:17.774Z,2.25
2022-10-09T16:08:44.537Z,3.30
2022-10-09T16:11:12.473Z,3.53
2022-10-09T16:13:40.542Z,4.47
2022-10-09T16:16:09.437Z,4.60
2022-10-09T16:18:36.405Z,2.83
2022-10-09T16:21:14.646Z,3.05
2022-10-09T16:23:42.111Z,2.97
2022-10-09T16:26:09.137Z,10.20
2022-10-09T16:28:36.371Z,11.07
2022-10-09T16:31:03.235Z,69.13
2022-10-09T16:33:29.967Z,16.75
2022-10-09T16:36:10.010Z,16.00
2022-10-09T16:38:37.516Z,7.38
2022-10-09T16:41:07.330Z,4.10
2022-10-09T16:43:34.049Z,2.88
2022-10-09T16:49:02.424Z,31.60
2022-10-09T16:51:33.967Z,48.95
2022-10-09T16:54:01.429Z,8.18
2022-10-09T16:56:29.983Z,4.45
2022-10-09T16:58:58.621Z,6.90
2022-10-09T17:01:25.705Z,5.13
2022-10-09T17:03:56.542Z,3.15
2022-10-09T17:10:04.312Z,2.72
2022-10-09T17:12:31.036Z,2.85
2022-10-09T17:14:57.707Z,3.60
2022-10-09T17:17:24.432Z,4.70
2022-10-09T17:22:17.718Z,6.88
2022-10-09T17:24:44.386Z,5.63
2022-10-09T17:27:11.127Z,5.75
2022-10-09T17:29:37.799Z,4.40
2022-10-09T17:32:04.824Z,4.28
2022-10-09T17:34:31.543Z,3.50
2022-10-09T17:36:58.308Z,4.80
2022-10-09T17:39:25.127Z,4.95
2022-10-09T17:41:51.789Z,12.75
2022-10-09T17:44:18.466Z,12.30
2022-10-09T17:46:45.176Z,10.15
2022-10-09T17:49:12.893Z,8.52
2022-10-09T17:51:42.389Z,7.80
2022-10-09T17:54:12.638Z,8.15
2022-10-09T17:56:39.550Z,9.63
2022-10-09T17:59:06.271Z,9.80
2022-10-09T18:01:33.042Z,10.55
2022-10-09T18:03:59.764Z,9.65
2022-10-09T18:06:26.522Z,9.20
2022-10-09T18:08:54.399Z,15.38
2022-10-09T18:11:21.536Z,12.02
2022-10-09T18:13:48.241Z,9.70
2022-10-09T18:16:20.555Z,10.60
2022-10-09T18:18:47.269Z,10.63
2022-10-09T18:21:18.147Z,12.10
2022-10-09T18:23:47.570Z,9.25
2022-10-09T18:26:16.649Z,9.73
2022-10-09T18:28:46.061Z,12.57
2022-10-09T18:31:17.419Z,11.35
2022-10-09T18:33:44.043Z,9.45
2022-10-09T18:36:22.971Z,9.73
2022-10-09T18:38:51.447Z,8.77
2022-10-09T18:41:18.380Z,13.97
2022-10-09T18:43:45.130Z,15.10
2022-10-09T18:49:53.071Z,12.97
2022-10-09T18:52:19.781Z,13.57
2022-10-09T18:54:47.616Z,14.63
2022-10-09T18:57:14.292Z,15.27
2022-10-09T18:59:41.198Z,12.57
2022-10-09T19:02:07.962Z,11.68
2022-10-09T19:04:34.636Z,12.77
2022-10-09T19:07:01.453Z,9.27
2022-10-09T19:09:28.482Z,6.77
2022-10-09T19:11:57.952Z,5.57
2022-10-09T19:14:27.311Z,7.20
2022-10-09T19:16:54.360Z,7.97
2022-10-09T19:19:21.118Z,11.93
2022-10-09T19:21:47.804Z,11.90
2022-10-09T19:24:14.540Z,10.80
2022-10-09T19:26:41.339Z,9.67
2022-10-09T19:29:08.153Z,9.27
2022-10-09T19:31:35.650Z,9.97
2022-10-09T19:34:03.279Z,7.93
2022-10-09T19:36:33.294Z,9.20
2022-10-09T19:39:00.984Z,8.57
2022-10-09T19:41:28.219Z,8.90
2022-10-09T19:43:54.880Z,10.53
2022-10-09T19:46:22.737Z,9.00
2022-10-09T19:48:50.273Z,7.77
2022-10-09T19:51:22.131Z,9.00
2022-10-09T19:53:48.830Z,7.97
2022-10-09T19:56:20.287Z,11.83
2022-10-09T19:58:47.500Z,11.50
2022-10-09T20:01:15.547Z,9.13
2022-10-09T20:03:42.458Z,9.13
2022-10-09T20:06:09.340Z,8.47
2022-10-09T20:08:36.852Z,8.33
2022-10-09T20:11:03.903Z,9.47
2022-10-09T20:13:33.538Z,7.23
2022-10-09T20:16:01.024Z,6.80
2022-10-09T20:18:27.878Z,6.83
2022-10-09T20:20:54.529Z,8.07
2022-10-09T20:23:21.332Z,6.70
2022-10-09T20:25:48.001Z,6.10
2022-10-09T20:28:15.341Z,5.97
2022-10-09T20:30:42.567Z,6.47
2022-10-09T20:33:09.513Z,7.33
2022-10-09T20:35:45.299Z,8.00
2022-10-09T20:38:12.096Z,7.67
2022-10-09T20:40:38.748Z,8.40
2022-10-09T20:43:05.455Z,7.97
2022-10-09T20:45:32.076Z,6.87
2022-10-09T20:47:58.741Z,8.23
2022-10-09T20:50:25.432Z,9.87
2022-10-09T20:53:35.819Z,9.90
2022-10-09T20:56:06.430Z,8.73
2022-10-09T20:58:35.290Z,8.90
2022-10-09T21:01:05.546Z,11.40
2022-10-09T21:03:32.317Z,8.33
2022-10-09T21:05:59.040Z,7.80
2022-10-09T21:08:25.786Z,7.37
2022-10-09T21:10:52.393Z,8.30
2022-10-09T21:13:19.077Z,8.23
2022-10-09T21:15:47.292Z,8.53
2022-10-09T21:18:14.701Z,7.97
2022-10-09T21:20:42.813Z,8.40
2022-10-09T21:23:10.015Z,7.27
2022-10-09T21:25:37.736Z,8.57
2022-10-09T21:28:04.743Z,7.47
2022-10-09T21:30:31.557Z,8.70
2022-10-09T21:32:58.161Z,8.57
2022-10-09T21:35:24.831Z,7.30
2022-10-09T21:37:51.606Z,7.17
2022-10-09T21:40:18.331Z,7.50
2022-10-09T21:42:45.041Z,7.10
2022-10-09T21:45:13.560Z,7.03
2022-10-09T21:47:40.222Z,7.90
2022-10-09T21:50:07.186Z,7.60
2022-10-09T21:52:33.897Z,7.13
2022-10-09T21:55:00.592Z,6.20
2022-10-09T21:57:27.573Z,6.13
2022-10-09T21:59:55.059Z,5.10
2022-10-09T22:02:21.684Z,6.87
2022-10-09T22:04:48.557Z,5.80
2022-10-09T22:07:15.213Z,5.53
2022-10-09T22:09:41.882Z,6.53
2022-10-09T22:12:08.509Z,7.47
2022-10-09T22:14:35.425Z,6.23
2022-10-09T22:17:03.598Z,5.87
2022-10-09T22:19:31.885Z,5.10
2022-10-09T22:21:58.936Z,4.60
2022-10-09T22:24:29.114Z,4.40
2022-10-09T22:26:57.121Z,5.40
2022-10-09T22:29:24.918Z,5.90
2022-10-09T22:31:51.716Z,7.47
2022-10-09T22:34:18.863Z,6.97
2022-10-09T22:36:45.613Z,5.30
2022-10-09T22:39:12.466Z,5.70
2022-10-09T22:41:39.246Z,5.10
2022-10-09T22:44:07.272Z,5.27
2022-10-09T22:46:38.598Z,6.30
2022-10-09T22:49:06.080Z,5.60
2022-10-09T22:51:32.780Z,5.50
2022-10-09T22:53:59.722Z,6.17
2022-10-09T22:56:31.923Z,5.40
2022-10-09T22:58:58.632Z,4.73
2022-10-09T23:01:31.371Z,4.37
2022-10-09T23:04:02.030Z,5.07
2022-10-09T23:06:28.712Z,5.27
2022-10-09T23:08:55.423Z,5.57
2022-10-09T23:11:22.806Z,5.50
2022-10-09T23:13:54.138Z,9.73
2022-10-09T23:16:20.836Z,7.40
2022-10-09T23:18:47.477Z,8.63
2022-10-09T23:21:15.837Z,6.30
2022-10-09T23:23:42.907Z,7.50
2022-10-09T23:26:12.227Z,6.10
2022-10-09T23:28:38.976Z,7.53
2022-10-09T23:31:10.403Z,5.17
2022-10-09T23:33:39.515Z,5.63
2022-10-09T23:36:06.545Z,6.30
2022-10-09T23:38:33.273Z,5.60
2022-10-09T23:41:01.463Z,4.67
2022-10-09T23:43:28.764Z,5.33
2022-10-09T23:45:55.917Z,5.53
2022-10-09T23:48:22.579Z,5.23
2022-10-09T23:50:49.817Z,5.23
2022-10-09T23:53:16.558Z,7.27
2022-10-09T23:55:43.882Z,5.93
2022-10-09T23:58:10.880Z,5.70
